Terminal Aerodrome Forecast
Issued by NWS Dodge City, KS

Home | Current Version | Previous Version | Graphics & Text | Print | Product List | Glossary On
Versions: 1 2 3 4 5 6 7 8 9 10 11 12 13 14 15 16 17 18 19 20 21 22 23 24 25 26 27 28 29 30 31 32 33 34 35 36 37 38 39 40 41 42
000
FTUS43 KDDC 031720
TAFDDC
TAF
KDDC 031720Z 0318/0418 36017G23KT P6SM SCT010 BKN250
     FM040000 36012KT P6SM BKN035
     FM040800 03018G25KT 6SM -SN OVC025
     FM041100 03019G26KT 2SM -SN OVC015=

USA.gov is the U.S. government's official web portal to all federal, state and local government web resources and services.